Terminal Aerodrome Forecast
Issued by NWS

Home | Current Version | Previous Version | Graphics & Text | Print | Product List | Glossary On
Versions: 1 2 3 4 5 6 7 8 9 10 11 12 13 14
000
FTUS43 KMPX 262342
TAFAXN
TAF
KAXN 262342Z 2700/2724 33015G23KT P6SM SKC
     FM270200 28007KT P6SM SKC
     FM270800 25010KT P6SM SCT080
     FM271100 30014G22KT P6SM FEW080
     FM271400 33022G31KT P6SM SKC
     FM272000 34018G27KT P6SM FEW040=

USA.gov is the U.S. government's official web portal to all federal, state and local government web resources and services.